Time;durP1;ratioP1;P1;durP2;ratioP2;P2;SDS_P1;SDS_P2;PMS_P1;PMS_P2;Temp;Humidity;BMP_temperature;BMP_pressure;BME280_temperature;BME280_humidity;BME280_pressure;Samples;Min_cycle;Max_cycle;Signal;HPM_P1;HPM_P2
2024/01/22 00:00:29;;;;;;;4.80;3.13;;;;;;;1.00;95.14;151626.44;4938694;28;20448;-79
2024/01/22 00:02:56;;;;;;;4.77;2.73;;;;;;;1.00;94.81;151626.44;4948184;28;20451;-80
2024/01/22 00:05:23;;;;;;;4.77;3.00;;;;;;;1.01;95.67;151628.97;4951165;28;20474;-80
2024/01/22 00:07:50;;;;;;;4.60;3.00;;;;;;;1.01;96.15;151628.97;4966485;28;20552;-80
2024/01/22 00:10:16;;;;;;;4.30;2.77;;;;;;;0.99;94.97;151622.56;4966335;28;20441;-80
2024/01/22 00:12:43;;;;;;;3.37;2.30;;;;;;;0.95;95.58;151613.59;4949826;28;20984;-80
2024/01/22 00:15:09;;;;;;;4.13;2.70;;;;;;;0.94;96.01;151611.03;4946487;28;20454;-80
2024/01/22 00:17:36;;;;;;;3.97;3.03;;;;;;;0.93;96.64;151608.44;4961042;28;20458;-80
2024/01/22 00:20:05;;;;;;;3.73;2.50;;;;;;;0.89;96.91;151598.19;4954433;28;20442;-80
2024/01/22 00:22:31;;;;;;;4.57;2.80;;;;;;;0.88;94.80;151595.59;4956260;28;20509;-80
2024/01/22 00:24:58;;;;;;;3.50;2.93;;;;;;;0.92;93.94;151604.59;4961552;28;20454;-80
2024/01/22 00:27:28;;;;;;;3.30;2.60;;;;;;;0.92;94.50;151605.91;4959461;28;20484;-79
2024/01/22 00:29:54;;;;;;;5.17;3.20;;;;;;;0.92;94.73;151604.59;4953979;28;20439;-80
2024/01/22 00:32:21;;;;;;;5.10;3.20;;;;;;;0.87;96.22;151593.06;4954350;28;20458;-79
2024/01/22 00:34:48;;;;;;;3.30;2.93;;;;;;;0.87;93.29;151591.75;4950394;28;20463;-79
2024/01/22 00:37:16;;;;;;;3.67;2.63;;;;;;;0.89;91.94;151598.19;4967504;28;20567;-80
2024/01/22 00:39:42;;;;;;;3.30;2.50;;;;;;;0.93;92.32;151608.44;4932788;28;20520;-80
2024/01/22 00:42:09;;;;;;;3.70;2.53;;;;;;;0.91;91.94;151602.00;4972827;28;20453;-81
2024/01/22 00:44:35;;;;;;;2.67;2.43;;;;;;;0.91;92.18;151602.00;4955303;28;20925;-80
2024/01/22 00:47:02;;;;;;;3.90;3.00;;;;;;;0.91;92.77;151602.00;4952741;28;20814;-80
2024/01/22 00:49:28;;;;;;;3.20;2.70;;;;;;;0.87;93.07;151593.06;4971344;28;20455;-80
2024/01/22 00:51:55;;;;;;;4.40;2.90;;;;;;;0.90;92.52;151600.72;4965422;28;20470;-80
2024/01/22 00:54:23;;;;;;;2.90;2.20;;;;;;;0.89;92.69;151598.19;4966518;28;20466;-80
2024/01/22 00:56:49;;;;;;;3.73;2.50;;;;;;;0.88;92.32;151595.59;4935902;28;20616;-80
2024/01/22 00:59:16;;;;;;;5.33;3.10;;;;;;;0.90;94.75;151599.47;4968491;28;20443;-79
2024/01/22 01:01:42;;;;;;;2.97;2.40;;;;;;;0.80;97.66;151575.03;4968245;28;20446;-80
2024/01/22 01:04:09;;;;;;;3.33;2.73;;;;;;;0.71;99.00;151550.66;4951962;28;20961;-80
2024/01/22 01:06:36;;;;;;;3.40;2.60;;;;;;;0.68;98.69;151542.97;4972453;28;20479;-79
2024/01/22 01:09:02;;;;;;;3.20;2.47;;;;;;;0.63;99.30;151531.41;4971176;28;20462;-79
2024/01/22 01:11:30;;;;;;;4.37;2.53;;;;;;;0.60;97.29;151525.00;4936946;28;20466;-79
2024/01/22 01:13:57;;;;;;;4.57;2.53;;;;;;;0.62;96.55;151528.81;4949737;28;20465;-79
2024/01/22 01:16:23;;;;;;;4.17;2.70;;;;;;;0.62;96.45;151528.81;4936731;28;20470;-79
2024/01/22 01:18:50;;;;;;;3.57;2.80;;;;;;;0.63;98.39;151531.41;4968147;28;20807;-79
2024/01/22 01:21:22;;;;;;;4.30;3.07;;;;;;;0.59;98.91;151522.41;4967040;28;20459;-79
2024/01/22 01:23:49;;;;;;;3.70;2.80;;;;;;;0.55;100.00;151510.88;4951704;28;20465;-79
2024/01/22 01:26:15;;;;;;;3.33;2.70;;;;;;;0.53;100.00;151505.75;4950172;28;20450;-79
2024/01/22 01:28:43;;;;;;;3.93;2.80;;;;;;;0.49;100.00;151496.75;4958605;28;20473;-79
2024/01/22 01:31:09;;;;;;;3.80;2.50;;;;;;;0.46;100.00;151487.75;4975305;28;20856;-80
2024/01/22 01:33:36;;;;;;;4.43;3.07;;;;;;;0.40;100.00;151472.31;4959187;28;20454;-80
2024/01/22 01:36:03;;;;;;;5.90;3.73;;;;;;;0.35;100.00;151459.50;4948799;28;20703;-80
2024/01/22 01:38:29;;;;;;;5.07;3.70;;;;;;;0.32;100.00;151453.06;4965697;28;20566;-80
2024/01/22 01:40:56;;;;;;;4.53;3.27;;;;;;;0.28;100.00;151441.53;4949821;28;20453;-80
2024/01/22 01:43:23;;;;;;;3.07;2.77;;;;;;;0.22;100.00;151426.13;4971514;28;20795;-80
2024/01/22 01:45:50;;;;;;;4.27;3.10;;;;;;;0.14;100.00;151406.88;4968774;28;20466;-80
2024/01/22 01:48:17;;;;;;;3.70;3.17;;;;;;;0.12;100.00;151400.47;4960153;28;20462;-81
2024/01/22 01:50:44;;;;;;;3.40;2.80;;;;;;;0.12;100.00;151401.75;4954237;28;20449;-80
2024/01/22 01:53:11;;;;;;;5.13;3.10;;;;;;;0.13;100.00;151403.06;4984276;28;20445;-80
2024/01/22 01:55:38;;;;;;;3.50;2.63;;;;;;;0.11;100.00;151399.16;4962420;28;20460;-80
2024/01/22 01:58:05;;;;;;;3.63;2.90;;;;;;;0.12;100.00;151401.75;4978915;28;20660;-80
2024/01/22 02:00:32;;;;;;;3.03;2.33;;;;;;;0.11;100.00;151397.94;4936670;28;20458;-80
2024/01/22 02:03:00;;;;;;;5.20;2.93;;;;;;;0.14;100.00;151405.59;4967363;28;20472;-80
2024/01/22 02:05:26;;;;;;;4.57;2.90;;;;;;;0.15;100.00;151408.19;4954171;28;21042;-80
2024/01/22 02:07:53;;;;;;;4.37;2.90;;;;;;;0.15;100.00;151408.19;4982624;28;20446;-80
2024/01/22 02:10:19;;;;;;;4.67;2.90;;;;;;;0.17;100.00;151413.28;4953488;28;20979;-80
2024/01/22 02:12:46;;;;;;;3.93;2.50;;;;;;;0.19;100.00;151418.41;4963411;28;20457;-80
2024/01/22 02:15:12;;;;;;;4.77;2.43;;;;;;;0.23;100.00;151428.72;4959348;28;20439;-81
2024/01/22 02:17:39;;;;;;;4.00;2.37;;;;;;;0.30;100.00;151446.66;4941117;28;20479;-80
2024/01/22 02:20:08;;;;;;;2.73;2.00;;;;;;;0.35;100.00;151459.50;4973330;28;20472;-80
2024/01/22 02:22:35;;;;;;;3.87;2.90;;;;;;;0.44;100.00;151483.91;4971687;28;20466;-80
2024/01/22 02:25:02;;;;;;;3.67;2.70;;;;;;;0.53;100.00;151505.75;4975309;28;20508;-80
2024/01/22 02:27:29;;;;;;;3.97;2.50;;;;;;;0.56;100.00;151514.69;4960506;28;20905;-80
2024/01/22 02:29:56;;;;;;;3.40;2.60;;;;;;;0.65;100.00;151536.53;4965570;28;20474;-80
2024/01/22 02:32:22;;;;;;;4.63;3.30;;;;;;;0.66;100.00;151539.13;4962392;28;20442;-80
2024/01/22 02:34:49;;;;;;;3.20;2.60;;;;;;;0.64;100.00;151532.72;4951631;28;20452;-80
2024/01/22 02:37:15;;;;;;;3.63;2.43;;;;;;;0.59;100.00;151522.41;4968007;28;20841;-80
2024/01/22 02:39:42;;;;;;;2.97;2.30;;;;;;;0.61;100.00;151526.25;4955467;28;20519;-80
2024/01/22 02:42:10;;;;;;;2.43;2.23;;;;;;;0.59;100.00;151521.13;4968695;28;20443;-80
2024/01/22 02:44:36;;;;;;;3.60;2.50;;;;;;;0.57;100.00;151517.28;4952189;28;20469;-80
2024/01/22 02:47:03;;;;;;;3.70;2.67;;;;;;;0.58;100.00;151518.59;4979254;28;20445;-79
2024/01/22 02:49:30;;;;;;;3.20;2.57;;;;;;;0.59;100.00;151521.13;4973264;28;20458;-79
2024/01/22 02:51:56;;;;;;;3.73;2.80;;;;;;;0.58;100.00;151518.59;4958867;28;20450;-80
2024/01/22 02:54:23;;;;;;;7.30;3.20;;;;;;;0.57;100.00;151516.00;4969452;28;20522;-80
2024/01/22 02:56:49;;;;;;;3.93;2.80;;;;;;;0.59;100.00;151521.13;4935615;28;20957;-80
2024/01/22 02:59:18;;;;;;;4.13;3.00;;;;;;;0.59;100.00;151521.13;4936223;28;20461;-80
2024/01/22 03:01:45;;;;;;;3.53;2.73;;;;;;;0.61;100.00;151526.25;4960721;28;20449;-80
2024/01/22 03:04:12;;;;;;;3.73;2.97;;;;;;;0.63;100.00;151531.41;4977374;28;20466;-80
2024/01/22 03:06:38;;;;;;;3.50;2.90;;;;;;;0.61;100.00;151526.25;4954984;28;20454;-80
2024/01/22 03:09:05;;;;;;;2.93;2.40;;;;;;;0.60;100.00;151523.72;4943883;28;20458;-79
2024/01/22 03:11:31;;;;;;;2.90;2.40;;;;;;;0.61;100.00;151526.25;4968894;28;20442;-80
2024/01/22 03:13:58;;;;;;;6.87;2.93;;;;;;;0.62;100.00;151528.81;4955046;28;20461;-80
2024/01/22 03:16:26;;;;;;;3.50;2.70;;;;;;;0.63;100.00;151531.41;4966783;28;20462;-79
2024/01/22 03:18:53;;;;;;;5.03;3.00;;;;;;;0.67;100.00;151540.38;4952372;28;20537;-80
2024/01/22 03:21:20;;;;;;;6.00;2.90;;;;;;;0.68;100.00;151544.25;4954398;28;20481;-80
2024/01/22 03:23:46;;;;;;;3.60;2.57;;;;;;;0.69;100.00;151546.78;4967221;28;20492;-80
2024/01/22 03:26:19;;;;;;;2.70;2.30;;;;;;;0.71;100.00;151551.97;4965437;28;20445;-80
2024/01/22 03:28:45;;;;;;;3.97;2.97;;;;;;;0.75;100.00;151562.22;4945084;28;20475;-80
2024/01/22 03:31:20;;;;;;;4.00;2.53;;;;;;;0.84;100.00;151585.34;4937665;28;20443;-80
2024/01/22 03:33:48;;;;;;;2.73;2.13;;;;;;;0.89;100.00;151596.88;4960328;28;20460;-80
2024/01/22 03:36:14;;;;;;;3.03;2.37;;;;;;;0.98;100.00;151621.28;4950114;28;20459;-80
2024/01/22 03:38:41;;;;;;;5.23;2.40;;;;;;;1.09;100.00;151649.53;4973095;28;20458;-79
2024/01/22 03:41:07;;;;;;;3.70;2.50;;;;;;;1.22;100.00;151682.94;4967292;28;20446;-79
2024/01/22 03:43:34;;;;;;;4.00;2.67;;;;;;;1.26;100.00;151690.66;4954474;28;20855;-79
2024/01/22 03:46:01;;;;;;;3.50;2.40;;;;;;;1.27;100.00;151693.22;4972059;28;20961;-80
2024/01/22 03:48:28;;;;;;;2.60;2.10;;;;;;;1.30;100.00;151700.94;4956742;28;20446;-80
2024/01/22 03:50:56;;;;;;;3.33;2.50;;;;;;;1.28;100.00;151697.06;4969343;28;20516;-80
2024/01/22 03:53:22;;;;;;;3.30;2.73;;;;;;;1.31;100.00;151703.50;4961034;28;20461;-80
2024/01/22 03:55:49;;;;;;;4.70;3.00;;;;;;;1.30;100.00;151700.94;4974164;28;20528;-79
2024/01/22 03:58:15;;;;;;;3.30;2.73;;;;;;;1.32;100.00;151706.06;4961983;28;20901;-79
2024/01/22 04:00:42;;;;;;;4.03;2.23;;;;;;;1.29;100.00;151699.66;4951676;28;20450;-79
2024/01/22 04:03:09;;;;;;;4.57;2.60;;;;;;;1.31;100.00;151703.50;4965222;28;20466;-78
2024/01/22 04:05:37;;;;;;;2.50;2.10;;;;;;;1.34;100.00;151711.19;4954974;28;20442;-79
2024/01/22 04:08:05;;;;;;;3.17;2.73;;;;;;;1.33;100.00;151708.63;4942666;28;20437;-79
2024/01/22 04:10:32;;;;;;;3.97;2.83;;;;;;;1.32;100.00;151707.38;4960567;28;20464;-79
2024/01/22 04:12:59;;;;;;;4.47;3.00;;;;;;;1.28;100.00;151695.78;4971634;28;20454;-79
2024/01/22 04:15:25;;;;;;;3.93;2.80;;;;;;;1.24;100.00;151688.06;4963597;28;20441;-79
2024/01/22 04:17:52;;;;;;;4.13;2.80;;;;;;;1.20;100.00;151677.81;4966101;28;20991;-79
2024/01/22 04:20:18;;;;;;;3.87;3.37;;;;;;;1.17;100.00;151670.09;4967725;28;20454;-79
2024/01/22 04:22:44;;;;;;;3.73;2.90;;;;;;;1.17;100.00;151668.78;4968128;28;20482;-80
2024/01/22 04:25:12;;;;;;;4.07;3.23;;;;;;;1.13;100.00;151659.84;4957871;28;20489;-80
2024/01/22 04:27:39;;;;;;;4.03;2.67;;;;;;;1.09;100.00;151649.53;4965730;28;20584;-79
2024/01/22 04:30:07;;;;;;;4.60;3.40;;;;;;;1.08;100.00;151645.69;4993756;28;20456;-79
2024/01/22 04:32:33;;;;;;;4.53;2.80;;;;;;;1.09;100.00;151649.53;4970257;28;20458;-79
2024/01/22 04:35:00;;;;;;;5.50;3.50;;;;;;;1.08;100.00;151645.69;4990254;28;20457;-79
2024/01/22 04:37:27;;;;;;;4.47;3.33;;;;;;;1.09;100.00;151648.25;4970713;28;20469;-79
2024/01/22 04:39:53;;;;;;;5.17;3.60;;;;;;;1.11;100.00;151654.66;4978450;28;20437;-79
2024/01/22 04:42:22;;;;;;;4.40;3.30;;;;;;;1.14;100.00;151662.38;4989277;28;20448;-79
2024/01/22 04:44:48;;;;;;;4.87;2.87;;;;;;;1.13;100.00;151659.84;4971599;28;21095;-80
2024/01/22 04:47:15;;;;;;;6.10;3.50;;;;;;;1.12;100.00;151655.97;4988463;28;20844;-79
2024/01/22 04:49:41;;;;;;;4.23;3.00;;;;;;;1.14;100.00;151662.38;4988897;28;20445;-79
2024/01/22 04:52:08;;;;;;;5.23;3.00;;;;;;;1.15;100.00;151664.97;4980293;28;21019;-79
2024/01/22 04:54:34;;;;;;;5.43;3.60;;;;;;;1.17;100.00;151670.09;4989959;28;20526;-79
2024/01/22 04:57:01;;;;;;;4.00;3.50;;;;;;;1.20;100.00;151677.81;4997090;28;20494;-79
2024/01/22 04:59:29;;;;;;;4.33;3.10;;;;;;;1.23;100.00;151685.53;4990903;28;20457;-79
2024/01/22 05:01:55;;;;;;;4.30;3.00;;;;;;;1.30;100.00;151700.94;4969354;28;20468;-80
2024/01/22 05:04:22;;;;;;;4.30;3.20;;;;;;;1.38;100.00;151721.50;4976395;28;20457;-79
2024/01/22 05:06:48;;;;;;;4.93;2.93;;;;;;;1.40;100.00;151727.94;4976531;28;20454;-79
2024/01/22 05:09:15;;;;;;;3.73;2.67;;;;;;;1.43;100.00;151734.34;4988107;28;20461;-79
2024/01/22 05:11:41;;;;;;;3.83;2.80;;;;;;;1.47;100.00;151744.59;4970254;28;20450;-88
2024/01/22 05:14:08;;;;;;;4.33;2.90;;;;;;;1.45;100.00;151739.47;4963343;28;21047;-88
2024/01/22 05:16:38;;;;;;;4.70;3.20;;;;;;;1.43;100.00;151734.34;4990012;28;20537;-89
2024/01/22 05:19:04;;;;;;;3.50;3.10;;;;;;;1.42;100.00;151731.75;4959349;28;20820;-89
2024/01/22 05:21:31;;;;;;;4.60;3.03;;;;;;;1.45;100.00;151739.47;4964348;28;20437;-88
2024/01/22 05:23:58;;;;;;;2.40;2.20;;;;;;;1.45;100.00;151739.47;4957034;28;20496;-89
2024/01/22 05:26:24;;;;;;;6.00;3.30;;;;;;;1.45;100.00;151739.47;4957426;28;20438;-88
2024/01/22 05:28:51;;;;;;;3.43;2.90;;;;;;;1.48;100.00;151747.19;4956299;28;20879;-88
2024/01/22 05:31:17;;;;;;;4.00;2.97;;;;;;;1.51;100.00;151756.16;4973059;28;20508;-88
2024/01/22 05:33:45;;;;;;;3.80;2.70;;;;;;;1.55;100.00;151765.16;4956782;28;20470;-88
2024/01/22 05:36:12;;;;;;;2.97;2.50;;;;;;;1.57;100.00;151770.28;4954220;28;20458;-88
2024/01/22 05:38:41;;;;;;;3.90;2.90;;;;;;;1.56;100.00;151769.00;4954209;28;20481;-88
2024/01/22 05:41:07;;;;;;;3.60;2.80;;;;;;;1.58;100.00;151774.19;4944387;28;20458;-89
2024/01/22 05:43:34;;;;;;;2.87;2.33;;;;;;;1.60;100.00;151778.00;4959369;28;20449;-88
2024/01/22 05:46:00;;;;;;;3.67;2.40;;;;;;;1.58;100.00;151772.88;4965511;28;20843;-89
2024/01/22 05:48:27;;;;;;;4.33;2.77;;;;;;;1.59;100.00;151775.47;4955412;28;20868;-89
2024/01/22 05:50:55;;;;;;;5.33;2.30;;;;;;;1.59;100.00;151775.47;4956958;28;20429;-88
2024/01/22 05:53:21;;;;;;;2.90;2.53;;;;;;;1.61;100.00;151780.59;4956919;28;20958;-88
2024/01/22 05:55:48;;;;;;;3.27;2.80;;;;;;;1.66;100.00;151793.44;4953749;28;20477;-89
2024/01/22 05:58:16;;;;;;;5.10;2.90;;;;;;;1.76;100.00;151819.13;4958885;28;20482;-88
2024/01/22 06:00:43;;;;;;;3.70;2.63;;;;;;;1.81;100.00;151832.00;4959994;28;20433;-88
2024/01/22 06:03:10;;;;;;;3.33;3.03;;;;;;;1.91;100.00;151857.69;4964056;28;20458;-89
2024/01/22 06:05:36;;;;;;;3.13;2.60;;;;;;;1.96;100.00;151870.53;4964207;28;20549;-88
2024/01/22 06:08:05;;;;;;;3.30;2.60;;;;;;;2.00;100.00;151879.56;4960298;28;20525;-88
2024/01/22 06:10:32;;;;;;;3.80;2.67;;;;;;;2.07;100.00;151898.81;4977176;28;20462;-88
2024/01/22 06:12:58;;;;;;;3.60;2.23;;;;;;;2.08;100.00;151900.13;4966664;28;20465;-88
2024/01/22 06:15:25;;;;;;;3.33;2.37;;;;;;;2.06;100.00;151895.00;4959100;28;20457;-88
2024/01/22 06:17:53;;;;;;;3.40;2.60;;;;;;;2.06;100.00;151896.28;4963624;28;20829;-88
2024/01/22 06:20:20;;;;;;;2.70;2.20;;;;;;;2.15;100.00;151919.41;4965298;28;20451;-89
2024/01/22 06:22:46;;;;;;;3.83;2.30;;;;;;;2.14;100.00;151915.56;4954457;28;20959;-89
2024/01/22 06:25:15;;;;;;;3.40;2.80;;;;;;;2.14;100.00;151916.84;4978126;28;20500;-88
2024/01/22 06:27:44;;;;;;;3.17;2.50;;;;;;;2.16;100.00;151921.97;4978441;28;20560;-88
2024/01/22 06:30:12;;;;;;;3.00;2.60;;;;;;;2.18;100.00;151927.13;4945202;28;21031;-89
2024/01/22 06:32:39;;;;;;;2.93;1.97;;;;;;;2.26;100.00;151947.69;4960563;28;20574;-88
2024/01/22 06:35:06;;;;;;;3.53;3.03;;;;;;;2.35;100.00;151970.84;4957787;28;20449;-88
2024/01/22 06:37:34;;;;;;;4.03;2.30;;;;;;;2.43;100.00;151991.44;4951412;28;20493;-89
2024/01/22 06:40:00;;;;;;;4.30;2.80;;;;;;;2.44;100.00;151993.97;4956999;28;20469;-88
2024/01/22 06:42:29;;;;;;;3.07;2.40;;;;;;;2.44;100.00;151993.97;4955287;28;20861;-89
2024/01/22 06:44:56;;;;;;;3.40;2.30;;;;;;;2.46;100.00;151999.09;4960288;28;20464;-89
2024/01/22 06:47:22;;;;;;;3.00;2.40;;;;;;;2.44;100.00;151992.69;4957476;28;20456;-89
2024/01/22 06:49:49;;;;;;;4.60;2.50;;;;;;;2.45;100.00;151995.28;4959869;28;20454;-90
2024/01/22 06:52:15;;;;;;;3.30;2.40;;;;;;;2.47;100.00;152001.69;4950767;28;20468;-87
2024/01/22 06:54:42;;;;;;;3.03;2.40;;;;;;;2.51;100.00;152009.41;4964569;28;20816;-87
2024/01/22 06:57:08;;;;;;;4.97;2.07;;;;;;;2.61;100.00;152036.44;4984180;28;20562;-88
2024/01/22 06:59:36;;;;;;;2.80;2.40;;;;;;;2.62;100.00;152037.72;4974138;28;20481;-88
2024/01/22 07:02:03;;;;;;;3.60;2.37;;;;;;;2.63;100.00;152040.25;4960256;28;20568;-88
2024/01/22 07:04:30;;;;;;;3.30;2.83;;;;;;;2.61;100.00;152036.44;4959164;28;20790;-88
2024/01/22 07:06:56;;;;;;;3.50;2.20;;;;;;;2.55;100.00;152020.97;4957974;28;20500;-88
2024/01/22 07:09:26;;;;;;;2.40;2.10;;;;;;;2.52;100.00;152013.25;4966495;28;20472;-88
2024/01/22 07:11:53;;;;;;;4.97;2.23;;;;;;;2.56;100.00;152023.56;4985609;28;20834;-88
2024/01/22 07:14:20;;;;;;;4.10;2.30;;;;;;;2.61;100.00;152035.13;4984499;28;20552;-87
2024/01/22 07:16:48;;;;;;;2.50;1.77;;;;;;;2.74;100.00;152068.56;4980109;28;20476;-87
2024/01/22 07:19:17;;;;;;;4.23;2.37;;;;;;;2.86;100.00;152100.72;4980355;28;20474;-87
2024/01/22 07:21:46;;;;;;;3.40;2.07;;;;;;;2.92;99.55;152114.88;4951161;28;20450;-88
2024/01/22 07:24:12;;;;;;;3.10;2.10;;;;;;;2.94;98.64;152120.00;4989541;28;20453;-88
2024/01/22 07:26:39;;;;;;;3.30;1.90;;;;;;;2.96;98.80;152126.50;4953502;28;20467;-89
2024/01/22 07:29:05;;;;;;;3.30;2.00;;;;;;;2.91;98.79;152112.34;4987349;28;20555;-88
2024/01/22 07:31:32;;;;;;;2.27;1.90;;;;;;;2.88;98.96;152104.59;4971497;28;20529;-89
2024/01/22 07:34:00;;;;;;;4.20;2.40;;;;;;;2.85;99.64;152098.19;4956586;28;20849;-89
2024/01/22 07:36:27;;;;;;;2.43;2.23;;;;;;;2.88;99.06;152104.59;4960554;28;20457;-89
2024/01/22 07:38:54;;;;;;;2.77;1.87;;;;;;;2.97;98.74;152127.75;4962957;28;20480;-89
2024/01/22 07:41:38;;;;;;;3.53;2.13;;;;;;;3.07;98.35;152153.50;4976287;28;20458;-89
2024/01/22 07:44:05;;;;;;;3.17;2.30;;;;;;;3.26;97.27;152202.38;4992777;28;20453;-92
2024/01/22 07:46:32;;;;;;;2.70;1.90;;;;;;;3.44;95.76;152248.69;4974575;28;20470;-91
2024/01/22 07:49:00;;;;;;;2.57;1.87;;;;;;;3.42;95.90;152243.56;4974474;28;20442;-91
2024/01/22 07:51:28;;;;;;;2.53;1.40;;;;;;;3.46;95.80;152253.88;4974299;28;20502;-94
2024/01/22 07:53:55;;;;;;;2.57;1.70;;;;;;;3.54;95.29;152274.47;4976114;28;20450;-93
2024/01/22 07:56:24;;;;;;;2.27;1.70;;;;;;;3.67;94.68;152307.94;4975306;28;20859;-92
2024/01/22 07:58:50;;;;;;;2.20;1.50;;;;;;;3.68;94.73;152310.50;4959638;28;20548;-93
2024/01/22 08:01:18;;;;;;;2.50;1.57;;;;;;;3.81;94.50;152341.41;4971150;28;20451;-95
2024/01/22 08:03:45;;;;;;;3.00;1.50;;;;;;;3.81;94.41;152342.72;4982581;28;20435;-93
2024/01/22 08:06:13;;;;;;;2.80;1.33;;;;;;;3.83;94.81;152347.84;4972910;28;20445;-92
2024/01/22 08:08:41;;;;;;;2.30;1.67;;;;;;;3.89;95.86;152363.25;4969922;28;20544;-90
2024/01/22 08:11:08;;;;;;;3.30;1.80;;;;;;;3.98;95.77;152385.16;4944346;28;20835;-88
2024/01/22 08:13:34;;;;;;;1.70;1.33;;;;;;;4.03;96.26;152398.03;4978030;28;20808;-90
2024/01/22 08:16:03;;;;;;;2.20;1.33;;;;;;;4.14;95.25;152426.38;4958241;28;21020;-94
2024/01/22 08:18:34;;;;;;;2.37;1.43;;;;;;;4.18;95.45;152436.72;4978990;28;20464;-93
2024/01/22 08:21:02;;;;;;;2.37;1.47;;;;;;;4.12;96.08;152422.53;4980860;28;20449;-93
2024/01/22 08:23:32;;;;;;;3.73;1.43;;;;;;;4.10;96.88;152416.09;4980797;28;20455;-92
2024/01/22 08:25:59;;;;;;;2.17;1.20;;;;;;;4.02;98.08;152395.50;4987870;28;20789;-91
2024/01/22 08:28:26;;;;;;;1.40;1.20;;;;;;;3.96;99.62;152380.03;4959674;28;20492;-92
2024/01/22 08:30:58;;;;;;;1.77;1.50;;;;;;;3.93;100.00;152372.28;4974111;28;20450;-92
2024/01/22 08:33:24;;;;;;;2.13;1.10;;;;;;;4.05;100.00;152403.22;4957168;28;20453;-92
2024/01/22 08:36:15;;;;;;;1.70;1.37;;;;;;;4.11;100.00;152419.94;4962846;28;20461;-93
2024/01/22 08:38:43;;;;;;;1.67;1.10;;;;;;;4.26;100.00;152457.31;4961024;28;20462;-91
2024/01/22 08:41:10;;;;;;;2.10;1.10;;;;;;;4.34;100.00;152477.94;4973492;28;20470;-90
2024/01/22 08:43:37;;;;;;;3.20;1.20;;;;;;;4.37;100.00;152485.63;4954611;28;20451;-90
2024/01/22 08:46:04;;;;;;;1.50;1.00;;;;;;;4.37;100.00;152484.38;4956568;28;20461;-91
2024/01/22 08:48:31;;;;;;;1.93;1.60;;;;;;;4.43;100.00;152499.78;4960437;28;20462;-92
2024/01/22 08:50:58;;;;;;;4.00;1.17;;;;;;;4.57;100.00;152537.19;4953432;28;20470;-92
2024/01/22 08:53:25;;;;;;;2.30;1.47;;;;;;;4.59;100.00;152541.03;4965256;28;20473;-92
2024/01/22 08:55:53;;;;;;;4.50;1.27;;;;;;;4.65;100.00;152557.78;4982505;28;20529;-92
2024/01/22 08:58:19;;;;;;;1.60;1.27;;;;;;;4.71;100.00;152573.22;4990936;28;20474;-92
2024/01/22 09:00:46;;;;;;;1.57;1.17;;;;;;;4.80;100.00;152595.13;4953880;28;20460;-92
2024/01/22 09:03:13;;;;;;;1.80;0.93;;;;;;;4.90;100.00;152620.91;4979340;28;20429;-93
2024/01/22 09:05:39;;;;;;;1.30;0.90;;;;;;;4.89;100.00;152619.66;4978280;28;20566;-93
2024/01/22 09:08:06;;;;;;;1.27;1.00;;;;;;;4.90;100.00;152622.19;4960295;28;20457;-91
2024/01/22 09:15:58;;;;;;;1.93;1.10;;;;;;;4.85;100.00;152608.03;4953001;29;20458;-94
2024/01/22 09:18:24;;;;;;;1.27;1.00;;;;;;;4.85;100.00;152609.31;4945232;28;20795;-94
2024/01/22 09:20:52;;;;;;;1.50;1.10;;;;;;;5.01;100.00;152647.97;4980448;28;20960;-94
2024/01/22 09:23:19;;;;;;;1.50;1.00;;;;;;;5.22;100.00;152702.09;4980496;28;20448;-95
2024/01/22 09:25:46;;;;;;;2.47;1.07;;;;;;;5.47;100.00;152766.59;4967526;28;20493;-95
2024/01/22 09:28:14;;;;;;;1.50;1.20;;;;;;;5.58;100.00;152794.97;4961669;28;20513;-94
2024/01/22 09:30:44;;;;;;;1.50;1.10;;;;;;;5.71;100.00;152828.47;4968628;28;20469;-95
2024/01/22 09:33:12;;;;;;;1.80;1.00;;;;;;;5.87;100.00;152869.81;4969870;28;20481;-96
2024/01/22 10:00:27;;;;;;;2.10;1.17;;;;;;;6.12;100.00;152934.28;4930839;29;20512;-96
2024/01/22 10:02:55;;;;;;;1.60;1.00;;;;;;;5.94;100.00;152887.84;4924172;29;20964;-95
2024/01/22 10:05:21;;;;;;;2.60;0.93;;;;;;;5.98;100.00;152898.16;4886940;29;20443;-96
2024/01/22 10:07:48;;;;;;;1.40;0.90;;;;;;;5.78;100.00;152846.53;4921885;29;20451;-94
2024/01/22 10:10:15;;;;;;;1.40;0.90;;;;;;;5.76;100.00;152841.38;4925502;29;20481;-95
2024/01/22 10:13:03;;;;;;;1.87;1.10;;;;;;;5.94;100.00;152886.56;4922130;29;20456;-94
2024/01/22 10:15:32;;;;;;;2.07;1.00;;;;;;;6.03;100.00;152911.09;4916703;29;20445;-94
2024/01/22 10:18:09;;;;;;;1.00;0.50;;;;;;;5.99;100.00;152900.75;4900561;29;20453;-94
2024/01/22 10:20:36;;;;;;;1.50;0.83;;;;;;;5.94;100.00;152887.84;4916236;29;20464;-93
2024/01/22 10:23:02;;;;;;;2.10;0.97;;;;;;;5.93;100.00;152884.00;4885354;29;20819;-92
2024/01/22 10:25:29;;;;;;;1.40;0.70;;;;;;;6.10;100.00;152929.13;4913685;29;20561;-92
2024/01/22 10:28:08;;;;;;;1.47;0.60;;;;;;;6.17;100.00;152944.63;4899399;29;20820;-91
2024/01/22 10:30:37;;;;;;;1.43;0.90;;;;;;;6.13;100.00;152935.59;4908674;29;20830;-91
2024/01/22 10:33:12;;;;;;;1.93;0.80;;;;;;;6.11;100.00;152931.72;4881578;29;21036;-91
2024/01/22 10:35:38;;;;;;;1.20;0.90;;;;;;;6.33;100.00;152985.91;4895291;29;20826;-90
2024/01/22 10:38:06;;;;;;;1.40;0.80;;;;;;;6.39;100.00;153001.38;4911876;29;20856;-91
2024/01/22 10:40:32;;;;;;;1.10;0.60;;;;;;;6.28;100.00;152972.97;4911430;29;20445;-91
2024/01/22 10:42:59;;;;;;;1.43;0.90;;;;;;;6.39;100.00;153001.38;4916474;29;20461;-92
2024/01/22 10:45:26;;;;;;;1.07;0.67;;;;;;;6.40;100.00;153003.97;4910828;29;20492;-91
2024/01/22 10:47:56;;;;;;;1.07;0.70;;;;;;;6.51;100.00;153032.38;4907744;29;20496;-93
2024/01/22 10:50:23;;;;;;;3.30;0.80;;;;;;;6.50;100.00;153031.06;4908322;29;20542;-91
2024/01/22 10:52:50;;;;;;;1.50;1.10;;;;;;;6.59;100.00;153053.00;4897841;29;20469;-92
2024/01/22 10:55:17;;;;;;;1.70;0.90;;;;;;;6.74;100.00;153093.03;4918816;29;20499;-92
2024/01/22 10:57:46;;;;;;;1.10;0.70;;;;;;;6.68;100.00;153076.22;4899024;29;20461;-93
2024/01/22 11:00:15;;;;;;;1.43;0.80;;;;;;;6.70;100.00;153081.38;4900581;29;20507;-93
2024/01/22 11:02:44;;;;;;;1.50;0.90;;;;;;;6.83;100.00;153114.94;4916553;29;20503;-93
2024/01/22 11:05:14;;;;;;;1.67;0.90;;;;;;;6.79;100.00;153104.63;4901039;29;20468;-92
2024/01/22 11:07:41;;;;;;;1.63;1.00;;;;;;;6.85;100.00;153120.13;4923184;29;20476;-93
2024/01/22 11:10:10;;;;;;;1.37;0.83;;;;;;;6.96;100.00;153147.25;4913693;29;20474;-91
2024/01/22 11:12:40;;;;;;;1.10;0.70;;;;;;;7.12;100.00;153188.56;4897108;29;20859;-91
2024/01/22 11:15:07;;;;;;;1.10;0.70;;;;;;;7.30;100.00;153236.34;4885971;29;20544;-92
2024/01/22 11:17:34;;;;;;;1.33;0.77;;;;;;;7.17;100.00;153202.75;4898765;29;21028;-92
2024/01/22 11:20:15;;;;;;;2.27;1.03;;;;;;;7.12;100.00;153189.81;4910217;29;20538;-92
2024/01/22 11:22:42;;;;;;;1.10;0.73;;;;;;;7.10;100.00;153184.66;4904321;29;20492;-89
2024/01/22 11:25:12;;;;;;;1.40;0.90;;;;;;;7.20;100.00;153210.47;4906529;29;20536;-91
2024/01/22 11:27:39;;;;;;;1.50;0.97;;;;;;;7.30;100.00;153235.03;4902603;29;20536;-91
2024/01/22 11:30:27;;;;;;;1.60;0.90;;;;;;;7.30;100.00;153235.03;4900114;29;20469;-90
2024/01/22 11:32:53;;;;;;;1.80;0.83;;;;;;;7.19;100.00;153206.63;4904445;29;20465;-90
2024/01/22 11:35:34;;;;;;;2.57;1.30;;;;;;;7.29;100.00;153232.44;4907889;29;20512;-92
2024/01/22 11:38:02;;;;;;;2.00;0.90;;;;;;;7.31;100.00;153238.88;4906919;29;20961;-92
2024/01/22 11:40:47;;;;;;;1.57;0.80;;;;;;;7.26;100.00;153225.97;4900118;29;20495;-91
2024/01/22 11:43:14;;;;;;;1.50;1.00;;;;;;;7.27;100.00;153228.56;4910059;29;20548;-92
2024/01/22 11:45:41;;;;;;;1.20;1.07;;;;;;;7.49;100.00;153282.81;4900207;29;20468;-92
2024/01/22 11:48:15;;;;;;;1.53;0.90;;;;;;;7.52;100.00;153291.81;4885739;29;20858;-91
2024/01/22 11:50:43;;;;;;;1.80;0.93;;;;;;;7.41;100.00;153262.16;4886050;29;20579;-93
2024/01/22 11:53:09;;;;;;;1.50;0.80;;;;;;;7.49;100.00;153282.81;4913082;29;20503;-93
2024/01/22 11:55:36;;;;;;;1.77;0.70;;;;;;;7.45;100.00;153272.47;4893172;29;20457;-93
2024/01/22 11:58:09;;;;;;;1.43;1.00;;;;;;;7.42;100.00;153264.69;4913763;29;20569;-93